Time;durP1;ratioP1;P1;durP2;ratioP2;P2;SDS_P1;SDS_P2;PMS_P1;PMS_P2;Temp;Humidity;BMP_temperature;BMP_pressure;BME280_temperature;BME280_humidity;BME280_pressure;Samples;Min_cycle;Max_cycle;Signal;HPM_P1;HPM_P2
2022/04/20 00:01:35;;;;;;;3.63;3.25;;;11.80;56.70;;;;;;5127867;27;20191;-81
2022/04/20 00:04:02;;;;;;;3.53;3.22;;;11.70;57.30;;;;;;5128139;27;20220;-82
2022/04/20 00:06:30;;;;;;;3.33;3.03;;;11.70;57.80;;;;;;5130672;27;20188;-81
2022/04/20 00:08:57;;;;;;;4.55;3.60;;;11.60;58.90;;;;;;5130254;27;20203;-81
2022/04/20 00:11:28;;;;;;;4.43;3.50;;;11.60;59.70;;;;;;5127993;27;20199;-81
2022/04/20 00:13:55;;;;;;;5.78;4.00;;;11.70;59.10;;;;;;5129526;27;20227;-81
2022/04/20 00:16:24;;;;;;;5.05;3.95;;;11.60;58.80;;;;;;5119933;27;20219;-81
2022/04/20 00:18:51;;;;;;;4.38;3.90;;;11.80;58.30;;;;;;5132457;27;20199;-81
2022/04/20 00:21:19;;;;;;;4.53;4.00;;;11.80;58.00;;;;;;5125774;27;20199;-81
2022/04/20 00:23:46;;;;;;;5.38;4.53;;;11.70;58.40;;;;;;5132163;27;20218;-81
2022/04/20 00:26:13;;;;;;;5.32;3.65;;;11.60;58.30;;;;;;5130181;27;20273;-81
2022/04/20 00:28:44;;;;;;;9.75;4.47;;;11.60;59.30;;;;;;5118969;27;20200;-81
2022/04/20 00:31:11;;;;;;;5.80;4.10;;;11.50;60.00;;;;;;5123576;27;20200;-81
2022/04/20 00:33:40;;;;;;;5.60;4.32;;;11.40;61.20;;;;;;5120364;27;20224;-81
2022/04/20 00:36:10;;;;;;;5.53;4.25;;;11.50;60.90;;;;;;5126942;27;20204;-81
2022/04/20 00:38:38;;;;;;;4.82;4.32;;;11.50;61.10;;;;;;5125080;27;20200;-81
2022/04/20 00:41:08;;;;;;;3.88;3.42;;;11.50;61.40;;;;;;5134410;27;20187;-81
2022/04/20 00:43:35;;;;;;;4.78;3.42;;;11.50;62.30;;;;;;5123037;27;20220;-81
2022/04/20 00:46:05;;;;;;;5.47;3.42;;;11.50;63.20;;;;;;5122366;27;20219;-81
2022/04/20 00:48:35;;;;;;;5.90;3.67;;;11.30;64.10;;;;;;5128585;27;20192;-81
2022/04/20 00:51:05;;;;;;;6.00;3.55;;;11.30;64.30;;;;;;5133143;27;20191;-81
2022/04/20 00:53:32;;;;;;;3.97;3.30;;;11.30;64.50;;;;;;5129213;27;20207;-81
2022/04/20 00:56:00;;;;;;;5.05;3.70;;;11.40;64.20;;;;;;5121422;27;20707;-81
2022/04/20 00:58:28;;;;;;;3.88;3.58;;;11.30;63.60;;;;;;5132557;27;20187;-81
2022/04/20 01:00:56;;;;;;;3.63;3.17;;;11.20;63.40;;;;;;5129078;27;20218;-81
2022/04/20 01:03:26;;;;;;;5.68;3.42;;;11.10;63.60;;;;;;5127007;27;20223;-81
2022/04/20 01:06:28;;;;;;;4.93;3.70;;;11.10;63.70;;;;;;5123036;27;20677;-81
2022/04/20 01:09:05;;;;;;;3.40;3.10;;;11.00;64.10;;;;;;5128044;27;20195;-81
2022/04/20 01:11:51;;;;;;;4.38;3.75;;;11.00;64.50;;;;;;5128207;27;20198;-81
2022/04/20 01:14:54;;;;;;;3.92;3.63;;;11.00;64.80;;;;;;5127977;27;20219;-81
2022/04/20 01:17:40;;;;;;;3.50;3.20;;;10.90;63.90;;;;;;5130285;27;20201;-81
2022/04/20 01:20:15;;;;;;;4.03;3.20;;;11.00;64.40;;;;;;5120377;27;20191;-81
2022/04/20 01:23:07;;;;;;;4.63;3.27;;;11.00;64.50;;;;;;5122764;27;20230;-81
2022/04/20 01:26:02;;;;;;;3.83;3.50;;;11.00;63.80;;;;;;5135969;27;20214;-81
2022/04/20 01:28:48;;;;;;;3.70;3.33;;;11.10;64.10;;;;;;5133159;27;20200;-81
2022/04/20 01:31:33;;;;;;;3.22;2.92;;;11.00;64.30;;;;;;5131943;27;20192;-81
2022/04/20 01:34:14;;;;;;;3.80;3.40;;;10.90;64.80;;;;;;5126486;27;20202;-81
2022/04/20 01:36:42;;;;;;;4.23;3.43;;;10.90;65.00;;;;;;5125265;27;20235;-82
2022/04/20 01:39:11;;;;;;;3.23;2.93;;;10.80;65.00;;;;;;5126624;27;20203;-81
2022/04/20 01:41:39;;;;;;;4.37;3.37;;;10.80;65.40;;;;;;5125083;27;20207;-81
2022/04/20 01:44:07;;;;;;;6.83;4.40;;;10.80;66.00;;;;;;5128081;27;20215;-82
2022/04/20 01:46:43;;;;;;;3.67;3.33;;;10.70;66.70;;;;;;5125561;27;20208;-81
2022/04/20 01:49:29;;;;;;;3.40;3.00;;;10.80;66.30;;;;;;5123525;27;20191;-81
2022/04/20 01:52:05;;;;;;;3.67;3.37;;;10.70;64.80;;;;;;5130696;27;20207;-81
2022/04/20 01:54:36;;;;;;;4.13;3.43;;;10.70;66.60;;;;;;5130392;27;20198;-81
2022/04/20 01:57:33;;;;;;;3.60;3.30;;;10.60;66.70;;;;;;5109059;27;20203;-81
2022/04/20 02:00:10;;;;;;;3.87;3.40;;;10.60;69.40;;;;;;5134195;27;20187;-81
2022/04/20 02:02:50;;;;;;;4.83;3.07;;;10.50;67.90;;;;;;5125064;27;20588;-81
2022/04/20 02:05:56;;;;;;;3.60;3.30;;;10.70;68.40;;;;;;5113110;27;20211;-81
2022/04/20 02:08:37;;;;;;;3.53;3.13;;;10.50;68.00;;;;;;5126620;27;20195;-81
2022/04/20 02:11:16;;;;;;;3.77;3.33;;;10.50;69.30;;;;;;5130283;27;20657;-81
2022/04/20 02:13:44;;;;;;;5.40;3.70;;;10.50;69.50;;;;;;5125875;27;20708;-81
2022/04/20 02:16:13;;;;;;;5.63;3.50;;;10.50;70.70;;;;;;5132541;27;20188;-81
2022/04/20 02:19:16;;;;;;;3.73;3.43;;;10.50;70.90;;;;;;5085497;28;20284;-81
2022/04/20 02:21:51;;;;;;;3.63;3.33;;;10.30;70.70;;;;;;5116940;27;20202;-81
2022/04/20 02:24:20;;;;;;;3.30;2.97;;;10.30;70.10;;;;;;5125873;27;20195;-81
2022/04/20 02:26:49;;;;;;;3.73;3.33;;;10.40;69.90;;;;;;5129390;27;20223;-81
2022/04/20 02:29:16;;;;;;;4.13;3.37;;;10.30;71.50;;;;;;5129561;27;20183;-81
2022/04/20 02:31:44;;;;;;;3.43;3.13;;;10.30;71.60;;;;;;5126244;27;20193;-82
2022/04/20 02:34:11;;;;;;;4.33;3.40;;;10.40;70.80;;;;;;5127392;27;20211;-81
2022/04/20 02:36:39;;;;;;;6.50;3.70;;;10.40;71.00;;;;;;5125861;27;20199;-81
2022/04/20 02:39:21;;;;;;;3.97;3.53;;;10.30;71.70;;;;;;5131050;27;20559;-82
2022/04/20 02:41:50;;;;;;;4.93;3.23;;;10.30;71.40;;;;;;5132093;27;20196;-81
2022/04/20 02:44:18;;;;;;;3.43;3.13;;;10.20;71.50;;;;;;5127825;27;20192;-81
2022/04/20 02:46:48;;;;;;;5.00;3.53;;;10.20;71.40;;;;;;5121394;28;20224;-81
2022/04/20 02:49:16;;;;;;;5.33;3.93;;;10.20;72.10;;;;;;5125237;27;20196;-81
2022/04/20 02:51:44;;;;;;;3.83;3.43;;;10.20;72.40;;;;;;5125945;28;20542;-81
2022/04/20 02:54:14;;;;;;;5.43;4.27;;;10.20;72.60;;;;;;5129515;27;20216;-82
2022/04/20 02:56:42;;;;;;;5.10;4.17;;;10.10;72.40;;;;;;5127477;28;20195;-81
2022/04/20 02:59:12;;;;;;;4.53;3.90;;;10.10;72.20;;;;;;5127288;28;20199;-81
2022/04/20 03:01:41;;;;;;;4.03;3.70;;;10.10;73.20;;;;;;5119492;27;20206;-81
2022/04/20 03:04:14;;;;;;;4.00;3.57;;;10.00;73.60;;;;;;5126255;27;20696;-82
2022/04/20 03:06:42;;;;;;;5.27;3.70;;;10.00;75.50;;;;;;5130225;27;20223;-81
2022/04/20 03:09:17;;;;;;;5.43;3.83;;;10.00;74.70;;;;;;5134094;27;20534;-81
2022/04/20 03:11:45;;;;;;;5.73;3.80;;;10.10;75.20;;;;;;5130841;27;20196;-81
2022/04/20 03:14:18;;;;;;;5.00;3.90;;;10.00;74.40;;;;;;5132713;27;20223;-81
2022/04/20 03:16:46;;;;;;;6.00;3.70;;;10.00;75.40;;;;;;5134633;27;20203;-81
2022/04/20 03:19:16;;;;;;;5.93;4.03;;;10.10;75.40;;;;;;5131050;27;20195;-81
2022/04/20 03:21:45;;;;;;;4.67;3.87;;;10.10;75.90;;;;;;5127753;27;20196;-81
2022/04/20 03:24:13;;;;;;;4.37;3.90;;;10.00;75.20;;;;;;5134978;27;20222;-81
2022/04/20 03:26:52;;;;;;;4.57;3.97;;;10.00;76.40;;;;;;5130428;27;20219;-81
2022/04/20 03:29:26;;;;;;;4.60;4.20;;;10.00;75.20;;;;;;5121386;27;20210;-81
2022/04/20 03:31:54;;;;;;;4.40;4.00;;;10.00;76.60;;;;;;5121955;27;20211;-82
2022/04/20 03:34:24;;;;;;;5.10;4.20;;;9.90;79.40;;;;;;5123585;27;20204;-81
2022/04/20 03:36:52;;;;;;;5.53;4.10;;;9.80;79.10;;;;;;5129450;27;20200;-81
2022/04/20 03:39:19;;;;;;;4.47;3.90;;;9.90;79.40;;;;;;5132713;27;20581;-81
2022/04/20 03:41:47;;;;;;;5.20;4.20;;;9.80;80.10;;;;;;5132180;27;20203;-81
2022/04/20 03:44:14;;;;;;;5.17;4.47;;;9.70;81.60;;;;;;5126956;27;20216;-81
2022/04/20 03:46:43;;;;;;;4.77;3.97;;;9.80;81.60;;;;;;5126244;27;20245;-81
2022/04/20 03:49:11;;;;;;;5.37;4.03;;;9.90;82.20;;;;;;5128635;27;20692;-81
2022/04/20 03:51:39;;;;;;;5.63;4.00;;;9.70;82.30;;;;;;5124999;27;20203;-81
2022/04/20 03:54:07;;;;;;;5.00;4.27;;;9.80;83.10;;;;;;5124228;27;20216;-81
2022/04/20 03:59:19;;;;;;;5.37;4.43;;;9.70;83.50;;;;;;5131721;27;20195;-81
2022/04/20 04:01:56;;;;;;;5.33;4.43;;;9.70;85.40;;;;;;5132433;27;20196;-81
2022/04/20 04:04:23;;;;;;;5.30;4.10;;;9.70;86.70;;;;;;5123065;27;20188;-81
2022/04/20 04:06:54;;;;;;;5.93;4.40;;;9.70;86.60;;;;;;5125105;27;20216;-81
2022/04/20 04:09:22;;;;;;;5.03;4.53;;;9.60;87.00;;;;;;5127886;27;20192;-81
2022/04/20 04:11:55;;;;;;;5.17;4.40;;;9.50;87.80;;;;;;5130228;27;20196;-83
2022/04/20 04:14:23;;;;;;;5.83;4.30;;;9.40;88.50;;;;;;5123591;27;20185;-81
2022/04/20 04:16:51;;;;;;;6.37;4.90;;;9.50;88.90;;;;;;5121272;27;20189;-81
2022/04/20 04:19:20;;;;;;;6.37;4.40;;;9.50;88.30;;;;;;5125759;27;20207;-81
2022/04/20 04:21:55;;;;;;;6.13;4.60;;;9.40;88.60;;;;;;5132375;27;20207;-81
2022/04/20 04:24:42;;;;;;;5.37;4.83;;;9.70;87.60;;;;;;5131725;27;20191;-81
2022/04/20 04:27:12;;;;;;;5.83;4.17;;;9.70;87.80;;;;;;5122821;27;20196;-81
2022/04/20 04:29:42;;;;;;;4.10;3.67;;;9.70;87.00;;;;;;5131193;27;20779;-81
2022/04/20 04:32:12;;;;;;;5.93;4.17;;;9.60;87.30;;;;;;5121306;27;20215;-78
2022/04/20 04:34:41;;;;;;;6.30;4.33;;;9.60;87.50;;;;;;5116155;27;20192;-78
2022/04/20 04:37:13;;;;;;;6.87;4.77;;;9.60;87.80;;;;;;5119567;27;20185;-78
2022/04/20 04:40:04;;;;;;;3.67;3.20;;;9.70;87.20;;;;;;5114291;27;20193;-79
2022/04/20 04:43:27;;;;;;;4.50;3.47;;;11.20;88.30;;;;;;5120207;27;20215;-78
2022/04/20 04:49:16;;;;;;;5.67;4.37;;;11.20;74.10;;;;;;5125660;27;20191;-79
2022/04/20 04:51:44;;;;;;;6.20;4.77;;;10.00;81.10;;;;;;5133084;27;20203;-77
2022/04/20 04:54:16;;;;;;;5.78;4.53;;;9.80;85.40;;;;;;5118819;27;20216;-77
2022/04/20 04:56:45;;;;;;;5.53;4.80;;;9.90;85.90;;;;;;5135241;27;20219;-77
2022/04/20 04:59:13;;;;;;;6.90;5.37;;;9.60;88.50;;;;;;5126996;27;20203;-77
2022/04/20 05:01:52;;;;;;;6.77;4.43;;;9.60;90.00;;;;;;5118254;27;20191;-78
2022/04/20 05:04:20;;;;;;;5.00;4.50;;;9.40;90.30;;;;;;5121142;27;20196;-77
2022/04/20 05:06:55;;;;;;;7.30;4.80;;;9.40;91.10;;;;;;5127567;27;20215;-77
2022/04/20 05:09:54;;;;;;;5.17;4.73;;;9.60;90.90;;;;;;5107026;27;20290;-78
2022/04/20 05:12:22;;;;;;;5.73;5.10;;;9.50;91.10;;;;;;5117490;27;20222;-78
2022/04/20 05:14:50;;;;;;;7.03;4.87;;;9.60;90.60;;;;;;5121647;27;20200;-77
2022/04/20 05:17:30;;;;;;;5.27;4.77;;;9.50;90.90;;;;;;5129947;27;20192;-78
2022/04/20 05:19:59;;;;;;;6.43;5.20;;;9.50;90.70;;;;;;5125424;27;20814;-77
2022/04/20 05:22:28;;;;;;;7.47;5.10;;;9.70;90.60;;;;;;5124113;27;20223;-77
2022/04/20 05:24:57;;;;;;;6.07;5.10;;;9.70;90.60;;;;;;5126445;27;20203;-77
2022/04/20 05:27:31;;;;;;;7.73;5.50;;;9.70;90.50;;;;;;5126467;27;20222;-77
2022/04/20 05:30:07;;;;;;;6.30;5.70;;;9.50;91.00;;;;;;5125262;27;20191;-77
2022/04/20 05:32:34;;;;;;;6.37;5.10;;;9.70;91.30;;;;;;5123320;27;20713;-77
2022/04/20 05:35:06;;;;;;;10.13;4.87;;;9.80;91.30;;;;;;5144315;27;20196;-77
2022/04/20 05:43:35;;;;;;;7.20;5.07;;;9.90;90.30;;;;;;5126735;27;20211;-78
2022/04/20 05:46:05;;;;;;;6.23;5.00;;;10.10;89.10;;;;;;5127104;27;20219;-78
2022/04/20 05:48:56;;;;;;;5.70;5.10;;;10.30;88.00;;;;;;5124152;27;20541;-77
2022/04/20 05:51:23;;;;;;;5.00;4.30;;;10.30;87.80;;;;;;5131832;27;20560;-78
2022/04/20 05:54:05;;;;;;;5.17;4.53;;;10.30;87.70;;;;;;5123837;27;20584;-77
2022/04/20 05:56:35;;;;;;;6.80;4.17;;;10.50;87.10;;;;;;5124320;27;20188;-78
2022/04/20 05:59:03;;;;;;;6.07;4.87;;;10.40;86.70;;;;;;5124176;27;20188;-77
2022/04/20 06:01:33;;;;;;;6.53;4.53;;;10.50;87.50;;;;;;5125913;27;20199;-77
2022/04/20 06:04:40;;;;;;;4.90;4.33;;;10.40;87.70;;;;;;5119893;27;20203;-79
2022/04/20 06:07:20;;;;;;;6.77;3.87;;;10.40;86.80;;;;;;5124937;27;20692;-79
2022/04/20 06:10:06;;;;;;;7.63;4.40;;;10.50;87.30;;;;;;5120244;27;20192;-78
2022/04/20 06:13:11;;;;;;;4.70;4.20;;;10.80;88.20;;;;;;5119432;27;20234;-79
2022/04/20 06:15:38;;;;;;;4.93;3.80;;;10.90;89.20;;;;;;5122354;27;20204;-75
2022/04/20 06:18:09;;;;;;;7.13;3.90;;;10.90;84.50;;;;;;5119795;27;20224;-77
2022/04/20 06:20:41;;;;;;;6.97;3.90;;;12.00;89.90;;;;;;5120720;27;20194;-77
2022/04/20 06:23:34;;;;;;;4.13;3.72;;;12.40;87.50;;;;;;5119892;27;20222;-78
2022/04/20 06:26:29;;;;;;;4.60;4.10;;;12.30;77.40;;;;;;5116471;27;20656;-79
2022/04/20 06:29:09;;;;;;;5.75;4.50;;;11.70;80.80;;;;;;5121250;27;20645;-77
2022/04/20 06:31:48;;;;;;;4.97;3.67;;;11.70;80.90;;;;;;5120090;27;20246;-77
2022/04/20 06:34:36;;;;;;;5.45;4.07;;;11.60;80.60;;;;;;5114443;27;20188;-78
2022/04/20 06:37:24;;;;;;;4.85;3.80;;;12.30;80.00;;;;;;5132863;27;20187;-78
2022/04/20 06:40:25;;;;;;;5.65;4.13;;;12.10;80.30;;;;;;5122759;27;20195;-79
2022/04/20 06:43:26;;;;;;;6.90;3.97;;;12.00;77.90;;;;;;5121137;27;20234;-78
2022/04/20 06:46:12;;;;;;;4.22;3.65;;;11.90;82.50;;;;;;5126565;27;20195;-78
2022/04/20 06:48:57;;;;;;;6.88;4.20;;;12.50;79.80;;;;;;5115939;27;20699;-79
2022/04/20 07:00:37;;;;;;;5.80;4.13;;;12.20;75.50;;;;;;5119293;28;20194;-76
2022/04/20 07:03:13;;;;;;;4.38;3.88;;;12.00;75.70;;;;;;5113224;28;20704;-76
2022/04/20 07:06:00;;;;;;;5.30;4.20;;;12.30;75.50;;;;;;5121489;28;20199;-77
2022/04/20 07:08:33;;;;;;;5.65;4.20;;;12.40;74.50;;;;;;5122270;28;20668;-77
2022/04/20 07:11:13;;;;;;;4.60;3.90;;;12.30;75.20;;;;;;5117041;28;20191;-76
2022/04/20 07:13:43;;;;;;;6.53;4.25;;;12.30;76.60;;;;;;5117684;28;20235;-77
2022/04/20 07:16:12;;;;;;;5.53;4.40;;;12.40;75.50;;;;;;5118927;27;20217;-77
2022/04/20 07:18:42;;;;;;;5.40;4.30;;;12.50;75.30;;;;;;5116291;28;20531;-77
2022/04/20 07:21:24;;;;;;;8.40;4.43;;;12.60;75.30;;;;;;5128579;28;20194;-78
2022/04/20 07:24:23;;;;;;;4.25;3.78;;;12.60;76.00;;;;;;5096697;28;20199;-77
2022/04/20 07:26:59;;;;;;;4.72;4.32;;;12.70;75.10;;;;;;5132140;27;20222;-77
2022/04/20 07:29:48;;;;;;;4.65;3.95;;;12.60;74.50;;;;;;5136326;27;20207;-77
2022/04/20 07:32:38;;;;;;;4.75;4.22;;;12.70;74.60;;;;;;5122112;28;20231;-77
2022/04/20 07:35:35;;;;;;;5.53;4.22;;;13.00;73.20;;;;;;5068803;28;20208;-77
2022/04/20 07:38:28;;;;;;;4.63;4.13;;;13.20;73.60;;;;;;5116101;28;20199;-76
2022/04/20 07:41:22;;;;;;;4.78;4.28;;;13.40;71.20;;;;;;5120221;27;20201;-80
2022/04/20 07:44:25;;;;;;;5.55;3.90;;;13.30;70.30;;;;;;5106538;27;20203;-76
2022/04/20 07:46:57;;;;;;;5.65;4.03;;;13.10;70.90;;;;;;5118790;28;20203;-79
2022/04/20 07:53:03;;;;;;;5.57;4.22;;;13.10;73.80;;;;;;5099176;27;20230;-79
2022/04/20 07:55:57;;;;;;;5.05;4.13;;;13.20;72.60;;;;;;5094198;27;20685;-77
2022/04/20 07:58:41;;;;;;;4.32;3.90;;;13.30;72.00;;;;;;5125422;27;20206;-76
2022/04/20 08:01:41;;;;;;;6.00;4.07;;;13.50;71.70;;;;;;5117389;27;20191;-77
2022/04/20 08:04:28;;;;;;;6.25;3.83;;;13.40;70.50;;;;;;5120782;27;20218;-79
2022/04/20 08:07:10;;;;;;;6.80;3.88;;;13.60;69.20;;;;;;5117833;27;20187;-77
2022/04/20 08:09:44;;;;;;;6.07;4.60;;;13.60;70.00;;;;;;5117662;27;20196;-78
2022/04/20 08:12:11;;;;;;;6.40;4.43;;;13.50;69.70;;;;;;5113743;27;20197;-77
2022/04/20 08:14:41;;;;;;;7.13;4.93;;;13.60;70.20;;;;;;5113777;27;20214;-77
2022/04/20 08:17:19;;;;;;;5.97;4.13;;;13.90;69.30;;;;;;5108850;27;20199;-77
2022/04/20 08:20:22;;;;;;;5.78;4.00;;;13.80;69.50;;;;;;5114130;27;20229;-77
2022/04/20 08:22:55;;;;;;;4.78;4.07;;;13.80;70.00;;;;;;5116445;27;20720;-78
2022/04/20 08:25:23;;;;;;;5.03;4.32;;;13.80;68.50;;;;;;5113769;27;20200;-78
2022/04/20 08:27:51;;;;;;;6.68;4.47;;;13.70;69.90;;;;;;5116684;27;20223;-78
2022/04/20 08:30:47;;;;;;;4.38;3.97;;;14.00;68.80;;;;;;5112072;27;20215;-80
2022/04/20 08:33:15;;;;;;;4.90;3.90;;;13.90;67.00;;;;;;5117215;27;20581;-77
2022/04/20 08:35:43;;;;;;;5.45;4.07;;;14.10;65.80;;;;;;5113427;27;20192;-77
2022/04/20 08:38:11;;;;;;;4.60;4.20;;;14.30;64.80;;;;;;5113007;27;20189;-77
2022/04/20 08:40:40;;;;;;;5.25;4.20;;;14.30;65.80;;;;;;5110787;27;20205;-79
2022/04/20 08:43:12;;;;;;;9.35;4.20;;;14.20;65.40;;;;;;5116578;27;20216;-80
2022/04/20 08:45:41;;;;;;;5.28;4.28;;;14.20;64.20;;;;;;5113348;27;20204;-78
2022/04/20 08:48:09;;;;;;;5.15;3.88;;;14.30;62.70;;;;;;5113960;27;20215;-77
2022/04/20 08:50:37;;;;;;;6.22;4.10;;;14.40;64.00;;;;;;5116024;27;20192;-77
2022/04/20 08:53:05;;;;;;;4.60;3.75;;;14.50;67.40;;;;;;5114419;27;20695;-78
2022/04/20 08:55:34;;;;;;;4.07;3.67;;;14.60;65.40;;;;;;5126976;27;20196;-78
2022/04/20 08:58:05;;;;;;;4.43;3.88;;;14.50;62.00;;;;;;5119350;27;20202;-78
2022/04/20 09:00:33;;;;;;;5.88;3.55;;;14.50;61.80;;;;;;5127139;27;20203;-78
2022/04/20 09:03:03;;;;;;;4.18;3.60;;;14.70;62.60;;;;;;5120214;27;20228;-79
2022/04/20 09:05:32;;;;;;;4.53;3.70;;;14.50;60.00;;;;;;5121614;27;20211;-79
2022/04/20 09:08:07;;;;;;;5.20;3.33;;;14.50;60.80;;;;;;5126517;27;20211;-77
2022/04/20 09:10:37;;;;;;;4.22;3.20;;;14.60;61.10;;;;;;5132838;27;20245;-78
2022/04/20 09:13:07;;;;;;;4.25;3.13;;;14.50;58.10;;;;;;5131812;27;20235;-78
2022/04/20 09:15:43;;;;;;;2.97;2.72;;;14.60;60.60;;;;;;5122484;27;20209;-78
2022/04/20 09:18:23;;;;;;;3.72;3.42;;;14.60;60.80;;;;;;5119710;27;20198;-78
2022/04/20 09:20:53;;;;;;;3.50;3.20;;;14.50;58.70;;;;;;5120519;27;20547;-78
2022/04/20 09:23:42;;;;;;;3.38;3.08;;;14.60;59.30;;;;;;5114157;27;20211;-77
2022/04/20 09:26:15;;;;;;;4.05;3.30;;;14.70;59.20;;;;;;5119468;27;20189;-77
2022/04/20 09:29:07;;;;;;;4.80;3.60;;;14.70;59.20;;;;;;5121246;27;20222;-77
2022/04/20 09:31:44;;;;;;;4.00;3.28;;;14.80;57.00;;;;;;5114910;27;20196;-79
2022/04/20 09:34:34;;;;;;;3.40;3.10;;;14.90;56.10;;;;;;5113366;27;20592;-78
2022/04/20 09:37:16;;;;;;;3.55;2.92;;;14.90;57.00;;;;;;5114555;27;20203;-77
2022/04/20 09:39:47;;;;;;;4.03;3.38;;;14.80;58.40;;;;;;5115116;27;20200;-78
2022/04/20 09:42:15;;;;;;;5.75;3.70;;;14.90;57.30;;;;;;5112608;27;20204;-76
2022/04/20 09:44:54;;;;;;;3.60;3.15;;;15.00;55.60;;;;;;5118954;27;20200;-78
2022/04/20 09:50:31;;;;;;;3.25;2.33;;;14.90;54.30;;;;;;5119203;27;20200;-78
2022/04/20 09:53:00;;;;;;;2.85;2.40;;;15.20;55.20;;;;;;5117436;27;20212;-78
2022/04/20 09:55:30;;;;;;;2.65;2.45;;;15.10;53.80;;;;;;5111666;27;20196;-78
2022/04/20 09:58:13;;;;;;;7.70;2.50;;;15.30;53.90;;;;;;5116569;27;20205;-77
2022/04/20 10:00:41;;;;;;;3.47;2.67;;;15.40;56.30;;;;;;5111630;27;20207;-78
2022/04/20 10:03:09;;;;;;;3.83;2.70;;;15.40;55.10;;;;;;5112397;27;20704;-77
2022/04/20 10:05:38;;;;;;;3.20;2.83;;;15.50;54.40;;;;;;5115042;27;20254;-77
2022/04/20 10:08:06;;;;;;;3.58;2.88;;;15.50;53.50;;;;;;5134627;27;20196;-77
2022/04/20 10:10:35;;;;;;;3.38;2.97;;;15.60;53.70;;;;;;5114665;27;20216;-78
2022/04/20 10:13:04;;;;;;;4.05;2.60;;;15.60;52.80;;;;;;5108579;27;20234;-78
2022/04/20 10:18:29;;;;;;;5.80;3.15;;;15.80;54.40;;;;;;5120714;27;20203;-78
2022/04/20 10:20:59;;;;;;;3.22;2.60;;;15.70;54.50;;;;;;5120767;27;20523;-78
2022/04/20 10:23:29;;;;;;;5.03;2.97;;;15.70;54.20;;;;;;5115192;27;20222;-78
2022/04/20 10:25:59;;;;;;;3.58;2.95;;;15.60;53.90;;;;;;5118784;27;20200;-79
2022/04/20 10:28:33;;;;;;;3.20;2.90;;;15.80;53.80;;;;;;5114265;27;20196;-79
2022/04/20 10:31:14;;;;;;;3.92;3.53;;;15.50;53.70;;;;;;5116962;27;20196;-79
2022/04/20 10:33:53;;;;;;;3.40;3.10;;;15.80;54.20;;;;;;5112097;27;20224;-79
2022/04/20 10:36:41;;;;;;;3.08;2.45;;;15.70;53.40;;;;;;5113728;27;20208;-79
2022/04/20 10:39:20;;;;;;;2.78;2.53;;;16.00;55.60;;;;;;5113629;27;20188;-78
2022/04/20 10:42:22;;;;;;;3.15;2.72;;;16.20;53.90;;;;;;5120688;27;20188;-78
2022/04/20 10:44:51;;;;;;;3.45;3.15;;;16.20;53.80;;;;;;5117117;27;20200;-79
2022/04/20 10:47:26;;;;;;;6.88;3.35;;;16.10;53.60;;;;;;5118958;27;20211;-78
2022/04/20 10:50:10;;;;;;;3.03;2.70;;;16.00;54.60;;;;;;5122149;27;20211;-79
2022/04/20 10:52:41;;;;;;;3.40;2.65;;;16.10;53.80;;;;;;5122037;28;20703;-79
2022/04/20 10:55:10;;;;;;;3.42;2.90;;;16.40;53.90;;;;;;5118169;28;20198;-79
2022/04/20 10:57:39;;;;;;;3.63;2.72;;;16.50;51.00;;;;;;5118453;28;20203;-79
2022/04/20 11:00:28;;;;;;;3.08;2.78;;;16.60;50.90;;;;;;5128106;28;20192;-79
2022/04/20 11:03:12;;;;;;;4.18;2.75;;;16.70;54.80;;;;;;5126415;28;20223;-77
2022/04/20 11:05:53;;;;;;;5.18;3.42;;;16.90;53.80;;;;;;5117556;28;20211;-79
2022/04/20 11:08:22;;;;;;;3.55;2.90;;;17.00;50.60;;;;;;5123608;27;20218;-80
2022/04/20 11:21:04;;;;;;;4.10;3.63;;;16.80;51.90;;;;;;5101238;28;20213;-79
2022/04/20 11:23:57;;;;;;;6.57;3.47;;;17.10;49.80;;;;;;5130545;27;20214;-79
2022/04/20 11:26:29;;;;;;;3.70;3.40;;;17.30;50.70;;;;;;5131893;27;20199;-80
2022/04/20 11:28:59;;;;;;;3.90;3.58;;;17.40;51.20;;;;;;5120881;27;20200;-79
2022/04/20 11:31:29;;;;;;;6.20;3.55;;;17.80;51.90;;;;;;5119973;27;20196;-80
2022/04/20 11:34:01;;;;;;;3.92;3.50;;;18.10;51.10;;;;;;5126636;27;20223;-79
2022/04/20 11:36:33;;;;;;;4.10;3.58;;;18.10;48.60;;;;;;5116323;27;20193;-80
2022/04/20 11:39:02;;;;;;;3.58;3.20;;;17.90;49.30;;;;;;5129223;27;20195;-80
2022/04/20 11:41:32;;;;;;;3.88;3.20;;;17.90;50.70;;;;;;5131161;27;20196;-79
2022/04/20 11:44:01;;;;;;;5.55;3.40;;;18.20;50.30;;;;;;5126532;27;20219;-79
2022/04/20 11:46:31;;;;;;;3.25;3.03;;;18.40;49.80;;;;;;5121763;27;20671;-79
2022/04/20 11:49:10;;;;;;;3.60;2.92;;;18.40;49.70;;;;;;5124313;27;20204;-79
2022/04/20 11:51:53;;;;;;;2.97;2.67;;;18.20;51.10;;;;;;5123500;27;20215;-79
2022/04/20 11:54:24;;;;;;;4.32;3.22;;;18.40;50.10;;;;;;5124664;27;20218;-79
2022/04/20 11:57:07;;;;;;;4.93;3.72;;;18.60;50.80;;;;;;5117922;27;20199;-79
2022/04/20 11:59:55;;;;;;;7.10;3.90;;;18.40;50.10;;;;;;5124080;27;20203;-79
2022/04/20 12:02:23;;;;;;;5.18;3.60;;;18.20;49.70;;;;;;5130176;27;20211;-79
2022/04/20 12:05:07;;;;;;;3.40;2.97;;;17.90;49.80;;;;;;5127122;27;20235;-80
2022/04/20 12:07:38;;;;;;;4.13;3.13;;;18.40;51.80;;;;;;5118657;27;20196;-77
2022/04/20 12:10:19;;;;;;;5.25;3.58;;;18.50;52.80;;;;;;5120561;27;20211;-77
2022/04/20 12:12:47;;;;;;;3.63;3.33;;;18.80;50.50;;;;;;5130842;22;20226;-77
2022/04/20 12:15:23;;;;;;;4.78;3.72;;;18.70;50.20;;;;;;5074765;28;20193;-77
2022/04/20 12:17:53;;;;;;;3.75;3.28;;;18.80;49.70;;;;;;5073442;28;20526;-78
2022/04/20 12:20:20;;;;;;;4.40;3.60;;;19.00;50.40;;;;;;5074609;28;20201;-77
2022/04/20 12:23:05;;;;;;;5.45;3.78;;;18.60;50.50;;;;;;5071246;28;20222;-77
2022/04/20 12:25:37;;;;;;;5.97;4.15;;;19.30;50.40;;;;;;5063103;28;20559;-77
2022/04/20 12:28:41;;;;;;;4.22;3.75;;;19.10;48.60;;;;;;5070261;28;20600;-77
2022/04/20 12:31:15;;;;;;;3.92;3.63;;;19.10;49.70;;;;;;5068301;28;20213;-77
2022/04/20 12:33:42;;;;;;;4.65;4.13;;;19.20;50.10;;;;;;5076953;28;20244;-77
2022/04/20 12:36:18;;;;;;;4.18;3.78;;;19.30;50.20;;;;;;5071747;28;20220;-77
2022/04/20 12:38:58;;;;;;;5.85;3.92;;;19.50;48.80;;;;;;5063469;28;20198;-78
2022/04/20 12:41:45;;;;;;;5.03;4.15;;;19.80;49.70;;;;;;5069623;28;20204;-77
2022/04/20 12:44:39;;;;;;;4.70;4.20;;;18.90;49.00;;;;;;5065326;28;20247;-77
2022/04/20 12:47:39;;;;;;;5.55;5.05;;;19.40;49.80;;;;;;5069719;28;20197;-77
2022/04/20 12:50:21;;;;;;;5.03;4.63;;;19.30;49.60;;;;;;5090825;22;20214;-78
2022/04/20 12:52:53;;;;;;;5.90;4.53;;;19.20;51.10;;;;;;5074430;28;20677;-78
2022/04/20 12:55:21;;;;;;;6.25;4.70;;;19.70;50.40;;;;;;5065725;28;20204;-81
2022/04/20 13:03:36;;;;;;;5.50;4.88;;;20.40;47.80;;;;;;5051610;28;20224;-80
2022/04/20 13:06:06;;;;;;;5.47;4.97;;;20.70;46.50;;;;;;5062945;28;20202;-80
2022/04/20 13:08:34;;;;;;;4.80;4.30;;;20.80;46.60;;;;;;5053895;28;20683;-80
2022/04/20 13:11:05;;;;;;;6.65;4.93;;;20.70;47.70;;;;;;5068560;28;20227;-81
2022/04/20 13:13:36;;;;;;;6.00;5.00;;;20.90;47.40;;;;;;5053308;28;20210;-80
2022/04/20 13:16:08;;;;;;;5.70;4.80;;;20.30;47.90;;;;;;5051604;28;20202;-80
2022/04/20 13:18:36;;;;;;;5.38;4.70;;;20.60;46.90;;;;;;5063921;28;20206;-80
2022/04/20 13:21:03;;;;;;;6.90;4.75;;;20.90;47.00;;;;;;5046576;28;20195;-80
2022/04/20 13:23:31;;;;;;;6.72;5.22;;;20.60;48.20;;;;;;5046464;28;20202;-80
2022/04/20 13:28:45;;;;;;;4.68;4.00;;;21.00;46.80;;;;;;5041984;28;20203;-80
2022/04/20 13:31:12;;;;;;;5.35;4.85;;;21.00;48.60;;;;;;5067281;28;20304;-81
2022/04/20 13:33:41;;;;;;;4.45;4.05;;;21.20;47.40;;;;;;5067108;28;20969;-81
2022/04/20 13:36:09;;;;;;;4.90;4.00;;;21.60;47.00;;;;;;5048019;28;20198;-80
2022/04/20 13:38:39;;;;;;;5.43;4.75;;;21.20;45.90;;;;;;5055179;28;20194;-80
2022/04/20 13:41:09;;;;;;;5.25;4.20;;;21.40;45.80;;;;;;5046299;28;20187;-80
2022/04/20 13:43:38;;;;;;;5.82;4.43;;;21.40;45.70;;;;;;5057281;28;20524;-80
2022/04/20 13:46:06;;;;;;;7.07;4.25;;;21.40;44.90;;;;;;5064160;28;20203;-80
2022/04/20 13:48:34;;;;;;;6.43;5.63;;;21.10;47.00;;;;;;5066120;28;20198;-80
2022/04/20 13:51:01;;;;;;;4.95;4.55;;;20.00;47.50;;;;;;5062640;28;20226;-80
2022/04/20 13:53:31;;;;;;;6.32;5.68;;;20.70;46.40;;;;;;5046239;28;20210;-80
2022/04/20 13:56:01;;;;;;;6.97;5.13;;;21.10;47.10;;;;;;5058661;28;20216;-80
2022/04/20 13:58:28;;;;;;;5.10;4.65;;;21.30;46.20;;;;;;5068692;28;20206;-81
2022/04/20 14:00:56;;;;;;;6.78;4.93;;;21.10;47.00;;;;;;5042539;28;20227;-81
2022/04/20 14:03:25;;;;;;;5.70;5.20;;;20.90;47.90;;;;;;5050972;28;20215;-80
2022/04/20 14:05:52;;;;;;;5.32;4.82;;;21.00;46.10;;;;;;5055353;28;20197;-80
2022/04/20 14:08:20;;;;;;;6.00;5.40;;;21.50;45.60;;;;;;5050364;28;20209;-80
2022/04/20 14:10:48;;;;;;;6.00;5.40;;;20.40;47.10;;;;;;5046845;28;20229;-80
2022/04/20 14:13:15;;;;;;;5.50;5.00;;;20.50;47.70;;;;;;5048557;28;20195;-80
2022/04/20 14:15:43;;;;;;;5.65;5.15;;;21.10;47.50;;;;;;5044564;28;20209;-80
2022/04/20 14:18:10;;;;;;;8.50;5.50;;;21.60;46.20;;;;;;5044818;28;20206;-79